sensor_id;sensor_type;location;lat;lon;timestamp;P1;durP1;ratioP1;P2;durP2;ratioP2
26656;SDS011;14279;50.010;8.260;2023-07-09T00:01:38;8.10;;;4.97;;
26656;SDS011;14279;50.010;8.260;2023-07-09T00:04:03;9.93;;;5.13;;
26656;SDS011;14279;50.010;8.260;2023-07-09T00:06:29;9.50;;;5.37;;
26656;SDS011;14279;50.010;8.260;2023-07-09T00:08:54;8.30;;;5.20;;
26656;SDS011;14279;50.010;8.260;2023-07-09T00:11:20;17.00;;;5.50;;
26656;SDS011;14279;50.010;8.260;2023-07-09T00:13:45;13.33;;;5.40;;
26656;SDS011;14279;50.010;8.260;2023-07-09T00:16:13;10.43;;;5.40;;
26656;SDS011;14279;50.010;8.260;2023-07-09T00:18:44;11.73;;;5.83;;
26656;SDS011;14279;50.010;8.260;2023-07-09T00:21:09;8.50;;;5.50;;
26656;SDS011;14279;50.010;8.260;2023-07-09T00:23:35;8.67;;;4.97;;
26656;SDS011;14279;50.010;8.260;2023-07-09T00:26:01;9.93;;;4.87;;
26656;SDS011;14279;50.010;8.260;2023-07-09T00:28:28;13.03;;;5.87;;
26656;SDS011;14279;50.010;8.260;2023-07-09T00:30:53;9.40;;;5.17;;
26656;SDS011;14279;50.010;8.260;2023-07-09T00:33:18;9.20;;;5.20;;
26656;SDS011;14279;50.010;8.260;2023-07-09T00:35:44;12.30;;;5.73;;
26656;SDS011;14279;50.010;8.260;2023-07-09T00:38:15;18.77;;;5.57;;
26656;SDS011;14279;50.010;8.260;2023-07-09T00:40:47;11.47;;;6.20;;
26656;SDS011;14279;50.010;8.260;2023-07-09T00:43:21;10.80;;;5.07;;
26656;SDS011;14279;50.010;8.260;2023-07-09T00:46:07;9.00;;;5.90;;
26656;SDS011;14279;50.010;8.260;2023-07-09T00:49:02;12.67;;;6.60;;
26656;SDS011;14279;50.010;8.260;2023-07-09T00:51:30;13.87;;;7.53;;
26656;SDS011;14279;50.010;8.260;2023-07-09T00:53:59;11.47;;;6.47;;
26656;SDS011;14279;50.010;8.260;2023-07-09T00:56:39;11.10;;;6.90;;
26656;SDS011;14279;50.010;8.260;2023-07-09T00:59:08;8.97;;;5.73;;
26656;SDS011;14279;50.010;8.260;2023-07-09T01:01:38;12.27;;;6.80;;
26656;SDS011;14279;50.010;8.260;2023-07-09T01:04:09;12.10;;;5.67;;
26656;SDS011;14279;50.010;8.260;2023-07-09T01:06:54;14.77;;;5.80;;
26656;SDS011;14279;50.010;8.260;2023-07-09T01:09:21;12.00;;;5.67;;
26656;SDS011;14279;50.010;8.260;2023-07-09T01:11:47;7.97;;;5.00;;
26656;SDS011;14279;50.010;8.260;2023-07-09T01:14:14;10.33;;;5.50;;
26656;SDS011;14279;50.010;8.260;2023-07-09T01:16:48;8.13;;;5.53;;
26656;SDS011;14279;50.010;8.260;2023-07-09T01:19:22;9.33;;;5.13;;
26656;SDS011;14279;50.010;8.260;2023-07-09T01:21:54;7.43;;;5.50;;
26656;SDS011;14279;50.010;8.260;2023-07-09T01:27:38;7.97;;;5.10;;
26656;SDS011;14279;50.010;8.260;2023-07-09T01:30:10;11.77;;;5.80;;
26656;SDS011;14279;50.010;8.260;2023-07-09T01:32:39;11.13;;;4.63;;
26656;SDS011;14279;50.010;8.260;2023-07-09T01:35:10;9.57;;;4.97;;
26656;SDS011;14279;50.010;8.260;2023-07-09T01:37:37;14.27;;;5.50;;
26656;SDS011;14279;50.010;8.260;2023-07-09T01:40:03;12.37;;;5.27;;
26656;SDS011;14279;50.010;8.260;2023-07-09T01:42:30;7.00;;;4.50;;
26656;SDS011;14279;50.010;8.260;2023-07-09T01:44:59;14.53;;;5.67;;
26656;SDS011;14279;50.010;8.260;2023-07-09T01:47:41;7.80;;;4.53;;
26656;SDS011;14279;50.010;8.260;2023-07-09T01:50:09;8.27;;;4.90;;
26656;SDS011;14279;50.010;8.260;2023-07-09T01:52:37;8.20;;;4.87;;
26656;SDS011;14279;50.010;8.260;2023-07-09T01:55:07;9.13;;;5.27;;
26656;SDS011;14279;50.010;8.260;2023-07-09T01:57:35;14.73;;;5.67;;
26656;SDS011;14279;50.010;8.260;2023-07-09T02:00:06;9.50;;;4.57;;
26656;SDS011;14279;50.010;8.260;2023-07-09T02:02:36;10.63;;;5.40;;
26656;SDS011;14279;50.010;8.260;2023-07-09T02:05:04;7.07;;;4.67;;
26656;SDS011;14279;50.010;8.260;2023-07-09T02:07:31;9.00;;;5.70;;
26656;SDS011;14279;50.010;8.260;2023-07-09T02:09:59;11.00;;;5.33;;
26656;SDS011;14279;50.010;8.260;2023-07-09T02:12:24;11.47;;;4.93;;
26656;SDS011;14279;50.010;8.260;2023-07-09T02:15:14;8.63;;;5.23;;
26656;SDS011;14279;50.010;8.260;2023-07-09T02:17:41;7.27;;;5.10;;
26656;SDS011;14279;50.010;8.260;2023-07-09T02:20:07;10.67;;;4.80;;
26656;SDS011;14279;50.010;8.260;2023-07-09T02:22:34;9.60;;;5.00;;
26656;SDS011;14279;50.010;8.260;2023-07-09T02:25:00;10.07;;;5.10;;
26656;SDS011;14279;50.010;8.260;2023-07-09T02:27:25;7.33;;;4.80;;
26656;SDS011;14279;50.010;8.260;2023-07-09T02:29:57;8.43;;;5.20;;
26656;SDS011;14279;50.010;8.260;2023-07-09T02:32:43;10.83;;;5.67;;
26656;SDS011;14279;50.010;8.260;2023-07-09T02:35:09;10.23;;;5.43;;
26656;SDS011;14279;50.010;8.260;2023-07-09T02:37:34;15.13;;;5.37;;
26656;SDS011;14279;50.010;8.260;2023-07-09T02:39:59;11.63;;;5.43;;
26656;SDS011;14279;50.010;8.260;2023-07-09T02:42:25;12.87;;;5.37;;
26656;SDS011;14279;50.010;8.260;2023-07-09T02:44:50;11.80;;;5.47;;
26656;SDS011;14279;50.010;8.260;2023-07-09T02:47:16;10.57;;;5.83;;
26656;SDS011;14279;50.010;8.260;2023-07-09T02:49:41;8.57;;;5.47;;
26656;SDS011;14279;50.010;8.260;2023-07-09T02:52:07;10.50;;;5.27;;
26656;SDS011;14279;50.010;8.260;2023-07-09T02:54:33;10.10;;;5.37;;
26656;SDS011;14279;50.010;8.260;2023-07-09T02:56:58;16.23;;;6.50;;
26656;SDS011;14279;50.010;8.260;2023-07-09T02:59:23;10.13;;;5.63;;
26656;SDS011;14279;50.010;8.260;2023-07-09T03:01:50;12.00;;;5.40;;
26656;SDS011;14279;50.010;8.260;2023-07-09T03:04:15;7.73;;;4.97;;
26656;SDS011;14279;50.010;8.260;2023-07-09T03:06:41;13.63;;;5.30;;
26656;SDS011;14279;50.010;8.260;2023-07-09T03:09:07;9.87;;;6.07;;
26656;SDS011;14279;50.010;8.260;2023-07-09T03:11:45;8.90;;;5.70;;
26656;SDS011;14279;50.010;8.260;2023-07-09T03:14:10;10.80;;;5.23;;
26656;SDS011;14279;50.010;8.260;2023-07-09T03:16:36;15.80;;;5.30;;
26656;SDS011;14279;50.010;8.260;2023-07-09T03:19:02;8.70;;;5.60;;
26656;SDS011;14279;50.010;8.260;2023-07-09T03:21:29;15.90;;;5.17;;
26656;SDS011;14279;50.010;8.260;2023-07-09T03:23:55;10.23;;;5.97;;
26656;SDS011;14279;50.010;8.260;2023-07-09T03:26:21;12.73;;;6.10;;
26656;SDS011;14279;50.010;8.260;2023-07-09T03:28:47;14.57;;;6.40;;
26656;SDS011;14279;50.010;8.260;2023-07-09T03:31:13;19.90;;;5.90;;
26656;SDS011;14279;50.010;8.260;2023-07-09T03:33:38;17.40;;;5.90;;
26656;SDS011;14279;50.010;8.260;2023-07-09T03:36:04;7.20;;;4.80;;
26656;SDS011;14279;50.010;8.260;2023-07-09T03:38:30;10.70;;;5.77;;
26656;SDS011;14279;50.010;8.260;2023-07-09T03:40:56;14.33;;;5.83;;
26656;SDS011;14279;50.010;8.260;2023-07-09T03:43:22;24.83;;;6.10;;
26656;SDS011;14279;50.010;8.260;2023-07-09T03:45:48;9.80;;;5.30;;
26656;SDS011;14279;50.010;8.260;2023-07-09T03:48:14;11.47;;;6.20;;
26656;SDS011;14279;50.010;8.260;2023-07-09T03:50:41;10.73;;;5.30;;
26656;SDS011;14279;50.010;8.260;2023-07-09T03:53:08;17.73;;;6.80;;
26656;SDS011;14279;50.010;8.260;2023-07-09T03:55:33;20.33;;;4.97;;
26656;SDS011;14279;50.010;8.260;2023-07-09T03:57:58;11.30;;;5.50;;
26656;SDS011;14279;50.010;8.260;2023-07-09T04:00:24;11.07;;;5.97;;
26656;SDS011;14279;50.010;8.260;2023-07-09T04:02:52;14.70;;;5.70;;
26656;SDS011;14279;50.010;8.260;2023-07-09T04:05:18;12.93;;;5.30;;
26656;SDS011;14279;50.010;8.260;2023-07-09T04:07:43;10.47;;;5.50;;
26656;SDS011;14279;50.010;8.260;2023-07-09T04:10:09;12.33;;;5.33;;
26656;SDS011;14279;50.010;8.260;2023-07-09T04:12:36;10.73;;;5.90;;
26656;SDS011;14279;50.010;8.260;2023-07-09T04:15:02;10.77;;;5.73;;
26656;SDS011;14279;50.010;8.260;2023-07-09T04:17:28;10.50;;;5.30;;
26656;SDS011;14279;50.010;8.260;2023-07-09T04:19:54;12.10;;;5.13;;
26656;SDS011;14279;50.010;8.260;2023-07-09T04:22:30;14.50;;;6.20;;
26656;SDS011;14279;50.010;8.260;2023-07-09T04:24:55;17.93;;;6.20;;
26656;SDS011;14279;50.010;8.260;2023-07-09T04:27:20;9.83;;;5.40;;
26656;SDS011;14279;50.010;8.260;2023-07-09T04:29:45;14.90;;;5.63;;
26656;SDS011;14279;50.010;8.260;2023-07-09T04:32:12;8.70;;;6.07;;
26656;SDS011;14279;50.010;8.260;2023-07-09T04:34:38;14.20;;;6.67;;
26656;SDS011;14279;50.010;8.260;2023-07-09T04:37:05;15.47;;;6.33;;
26656;SDS011;14279;50.010;8.260;2023-07-09T04:39:32;18.67;;;7.50;;
26656;SDS011;14279;50.010;8.260;2023-07-09T04:41:57;13.10;;;6.00;;
26656;SDS011;14279;50.010;8.260;2023-07-09T04:44:22;16.90;;;6.80;;
26656;SDS011;14279;50.010;8.260;2023-07-09T04:46:48;22.23;;;6.23;;
26656;SDS011;14279;50.010;8.260;2023-07-09T04:49:14;10.30;;;6.17;;
26656;SDS011;14279;50.010;8.260;2023-07-09T04:51:39;16.43;;;5.93;;
26656;SDS011;14279;50.010;8.260;2023-07-09T04:54:05;17.30;;;6.77;;
26656;SDS011;14279;50.010;8.260;2023-07-09T04:56:30;12.43;;;6.07;;
26656;SDS011;14279;50.010;8.260;2023-07-09T04:58:56;13.57;;;6.67;;
26656;SDS011;14279;50.010;8.260;2023-07-09T05:01:21;9.23;;;5.60;;
26656;SDS011;14279;50.010;8.260;2023-07-09T05:03:47;10.57;;;5.90;;
26656;SDS011;14279;50.010;8.260;2023-07-09T05:06:12;11.13;;;6.10;;
26656;SDS011;14279;50.010;8.260;2023-07-09T05:08:38;14.80;;;5.90;;
26656;SDS011;14279;50.010;8.260;2023-07-09T05:11:04;11.63;;;5.97;;
26656;SDS011;14279;50.010;8.260;2023-07-09T05:13:29;9.07;;;6.07;;
26656;SDS011;14279;50.010;8.260;2023-07-09T05:15:54;6.90;;;5.40;;
26656;SDS011;14279;50.010;8.260;2023-07-09T05:18:19;10.00;;;6.87;;
26656;SDS011;14279;50.010;8.260;2023-07-09T05:20:45;11.60;;;5.90;;
26656;SDS011;14279;50.010;8.260;2023-07-09T05:23:11;21.70;;;6.53;;
26656;SDS011;14279;50.010;8.260;2023-07-09T05:25:36;10.27;;;5.20;;
26656;SDS011;14279;50.010;8.260;2023-07-09T05:28:02;16.17;;;5.93;;
26656;SDS011;14279;50.010;8.260;2023-07-09T05:30:28;8.97;;;6.00;;
26656;SDS011;14279;50.010;8.260;2023-07-09T05:32:54;10.67;;;5.60;;
26656;SDS011;14279;50.010;8.260;2023-07-09T05:35:22;20.50;;;5.37;;
26656;SDS011;14279;50.010;8.260;2023-07-09T05:37:53;11.90;;;5.87;;
26656;SDS011;14279;50.010;8.260;2023-07-09T05:40:19;13.10;;;5.83;;
26656;SDS011;14279;50.010;8.260;2023-07-09T05:42:45;14.63;;;5.40;;
26656;SDS011;14279;50.010;8.260;2023-07-09T05:45:10;10.70;;;4.80;;
26656;SDS011;14279;50.010;8.260;2023-07-09T05:47:36;8.53;;;4.97;;
26656;SDS011;14279;50.010;8.260;2023-07-09T05:50:01;10.03;;;5.30;;
26656;SDS011;14279;50.010;8.260;2023-07-09T05:52:30;10.70;;;5.30;;
26656;SDS011;14279;50.010;8.260;2023-07-09T05:54:58;7.20;;;5.30;;
26656;SDS011;14279;50.010;8.260;2023-07-09T05:57:25;7.30;;;4.10;;
26656;SDS011;14279;50.010;8.260;2023-07-09T05:59:51;8.90;;;4.43;;
26656;SDS011;14279;50.010;8.260;2023-07-09T06:02:17;9.43;;;4.80;;
26656;SDS011;14279;50.010;8.260;2023-07-09T06:04:52;8.60;;;4.70;;
26656;SDS011;14279;50.010;8.260;2023-07-09T06:07:17;12.67;;;4.93;;
26656;SDS011;14279;50.010;8.260;2023-07-09T06:09:43;20.43;;;5.60;;
26656;SDS011;14279;50.010;8.260;2023-07-09T06:12:11;8.30;;;4.37;;
26656;SDS011;14279;50.010;8.260;2023-07-09T06:14:37;9.67;;;4.33;;
26656;SDS011;14279;50.010;8.260;2023-07-09T06:17:07;7.30;;;4.30;;
26656;SDS011;14279;50.010;8.260;2023-07-09T06:19:35;8.33;;;4.87;;
26656;SDS011;14279;50.010;8.260;2023-07-09T06:22:00;5.63;;;3.90;;
26656;SDS011;14279;50.010;8.260;2023-07-09T06:24:25;16.23;;;4.83;;
26656;SDS011;14279;50.010;8.260;2023-07-09T06:26:50;13.90;;;4.53;;
26656;SDS011;14279;50.010;8.260;2023-07-09T06:29:16;10.67;;;4.70;;
26656;SDS011;14279;50.010;8.260;2023-07-09T06:31:41;12.67;;;4.00;;
26656;SDS011;14279;50.010;8.260;2023-07-09T06:34:07;10.40;;;4.67;;
26656;SDS011;14279;50.010;8.260;2023-07-09T06:36:39;10.70;;;4.87;;
26656;SDS011;14279;50.010;8.260;2023-07-09T06:41:57;13.87;;;4.93;;
26656;SDS011;14279;50.010;8.260;2023-07-09T06:44:22;12.40;;;5.03;;
26656;SDS011;14279;50.010;8.260;2023-07-09T06:46:47;9.83;;;5.10;;
26656;SDS011;14279;50.010;8.260;2023-07-09T06:49:13;7.53;;;4.27;;
26656;SDS011;14279;50.010;8.260;2023-07-09T06:51:39;8.27;;;4.63;;
26656;SDS011;14279;50.010;8.260;2023-07-09T06:54:04;10.13;;;4.00;;
26656;SDS011;14279;50.010;8.260;2023-07-09T06:56:30;13.40;;;4.60;;
26656;SDS011;14279;50.010;8.260;2023-07-09T06:59:05;12.70;;;4.50;;
26656;SDS011;14279;50.010;8.260;2023-07-09T07:01:35;8.40;;;5.10;;
26656;SDS011;14279;50.010;8.260;2023-07-09T07:04:00;6.90;;;4.37;;
26656;SDS011;14279;50.010;8.260;2023-07-09T07:06:32;14.47;;;6.37;;
26656;SDS011;14279;50.010;8.260;2023-07-09T07:09:14;10.83;;;5.67;;
26656;SDS011;14279;50.010;8.260;2023-07-09T07:11:53;10.30;;;5.07;;
26656;SDS011;14279;50.010;8.260;2023-07-09T07:14:18;8.33;;;4.77;;
26656;SDS011;14279;50.010;8.260;2023-07-09T07:16:44;7.23;;;3.93;;
26656;SDS011;14279;50.010;8.260;2023-07-09T07:22:01;12.40;;;4.60;;
26656;SDS011;14279;50.010;8.260;2023-07-09T07:24:29;7.63;;;4.30;;
26656;SDS011;14279;50.010;8.260;2023-07-09T07:27:03;8.87;;;4.73;;
26656;SDS011;14279;50.010;8.260;2023-07-09T07:29:50;12.97;;;5.30;;
26656;SDS011;14279;50.010;8.260;2023-07-09T07:32:32;10.93;;;5.57;;
26656;SDS011;14279;50.010;8.260;2023-07-09T07:35:09;10.70;;;5.80;;
26656;SDS011;14279;50.010;8.260;2023-07-09T07:37:39;16.17;;;5.03;;
26656;SDS011;14279;50.010;8.260;2023-07-09T07:40:05;8.23;;;5.30;;
26656;SDS011;14279;50.010;8.260;2023-07-09T07:42:32;10.60;;;5.23;;
26656;SDS011;14279;50.010;8.260;2023-07-09T07:54:25;11.63;;;4.63;;
26656;SDS011;14279;50.010;8.260;2023-07-09T07:56:54;14.97;;;4.97;;
26656;SDS011;14279;50.010;8.260;2023-07-09T07:59:20;18.33;;;5.20;;
26656;SDS011;14279;50.010;8.260;2023-07-09T08:01:49;6.80;;;3.93;;
26656;SDS011;14279;50.010;8.260;2023-07-09T08:04:14;7.00;;;4.30;;
26656;SDS011;14279;50.010;8.260;2023-07-09T08:06:43;10.97;;;5.20;;
26656;SDS011;14279;50.010;8.260;2023-07-09T08:12:52;8.43;;;4.70;;
26656;SDS011;14279;50.010;8.260;2023-07-09T08:15:21;11.00;;;4.30;;
26656;SDS011;14279;50.010;8.260;2023-07-09T08:17:46;7.67;;;4.27;;
26656;SDS011;14279;50.010;8.260;2023-07-09T08:20:12;10.83;;;4.07;;
26656;SDS011;14279;50.010;8.260;2023-07-09T08:22:37;12.73;;;4.30;;
26656;SDS011;14279;50.010;8.260;2023-07-09T08:27:54;9.00;;;4.50;;
26656;SDS011;14279;50.010;8.260;2023-07-09T08:30:19;8.50;;;4.10;;
26656;SDS011;14279;50.010;8.260;2023-07-09T08:32:47;6.23;;;4.37;;
26656;SDS011;14279;50.010;8.260;2023-07-09T08:35:13;7.27;;;4.23;;
26656;SDS011;14279;50.010;8.260;2023-07-09T08:37:40;8.13;;;3.90;;
26656;SDS011;14279;50.010;8.260;2023-07-09T08:40:07;7.80;;;4.57;;
26656;SDS011;14279;50.010;8.260;2023-07-09T08:42:41;9.10;;;4.33;;
26656;SDS011;14279;50.010;8.260;2023-07-09T08:48:03;10.63;;;4.73;;
26656;SDS011;14279;50.010;8.260;2023-07-09T08:50:37;8.70;;;4.40;;
26656;SDS011;14279;50.010;8.260;2023-07-09T08:53:09;8.50;;;4.37;;
26656;SDS011;14279;50.010;8.260;2023-07-09T08:55:43;6.13;;;4.27;;
26656;SDS011;14279;50.010;8.260;2023-07-09T08:58:15;13.00;;;4.60;;
26656;SDS011;14279;50.010;8.260;2023-07-09T09:01:20;7.80;;;4.33;;
26656;SDS011;14279;50.010;8.260;2023-07-09T09:03:50;6.00;;;4.40;;
26656;SDS011;14279;50.010;8.260;2023-07-09T09:08:51;15.00;;;4.60;;
26656;SDS011;14279;50.010;8.260;2023-07-09T09:11:28;9.17;;;4.67;;
26656;SDS011;14279;50.010;8.260;2023-07-09T09:14:01;11.57;;;4.67;;
26656;SDS011;14279;50.010;8.260;2023-07-09T09:16:44;8.87;;;4.67;;
26656;SDS011;14279;50.010;8.260;2023-07-09T09:19:32;10.23;;;4.80;;
26656;SDS011;14279;50.010;8.260;2023-07-09T09:22:02;9.43;;;5.13;;
26656;SDS011;14279;50.010;8.260;2023-07-09T09:24:37;7.67;;;4.60;;
26656;SDS011;14279;50.010;8.260;2023-07-09T09:27:19;10.67;;;5.03;;
26656;SDS011;14279;50.010;8.260;2023-07-09T09:29:45;9.93;;;4.80;;
26656;SDS011;14279;50.010;8.260;2023-07-09T09:32:18;7.53;;;4.70;;
26656;SDS011;14279;50.010;8.260;2023-07-09T09:34:48;9.60;;;5.20;;
26656;SDS011;14279;50.010;8.260;2023-07-09T09:37:16;8.83;;;5.00;;
26656;SDS011;14279;50.010;8.260;2023-07-09T09:39:50;7.30;;;4.80;;
26656;SDS011;14279;50.010;8.260;2023-07-09T09:42:15;11.10;;;6.47;;
26656;SDS011;14279;50.010;8.260;2023-07-09T09:44:44;7.73;;;4.77;;
26656;SDS011;14279;50.010;8.260;2023-07-09T09:47:11;8.10;;;5.23;;
26656;SDS011;14279;50.010;8.260;2023-07-09T09:49:40;7.80;;;4.43;;
26656;SDS011;14279;50.010;8.260;2023-07-09T09:52:10;9.73;;;4.00;;
26656;SDS011;14279;50.010;8.260;2023-07-09T09:54:40;11.10;;;5.00;;
26656;SDS011;14279;50.010;8.260;2023-07-09T09:57:16;16.87;;;5.40;;
26656;SDS011;14279;50.010;8.260;2023-07-09T09:59:44;10.90;;;5.17;;
26656;SDS011;14279;50.010;8.260;2023-07-09T10:02:16;10.73;;;5.30;;
26656;SDS011;14279;50.010;8.260;2023-07-09T10:04:46;7.20;;;4.60;;
26656;SDS011;14279;50.010;8.260;2023-07-09T10:07:21;14.27;;;5.20;;
26656;SDS011;14279;50.010;8.260;2023-07-09T10:09:52;9.07;;;5.40;;
26656;SDS011;14279;50.010;8.260;2023-07-09T10:14:58;11.60;;;4.97;;
26656;SDS011;14279;50.010;8.260;2023-07-09T10:17:40;10.73;;;5.17;;
26656;SDS011;14279;50.010;8.260;2023-07-09T10:22:55;10.47;;;4.90;;
26656;SDS011;14279;50.010;8.260;2023-07-09T10:28:10;12.90;;;5.37;;
26656;SDS011;14279;50.010;8.260;2023-07-09T10:33:19;9.90;;;4.90;;
26656;SDS011;14279;50.010;8.260;2023-07-09T10:46:45;11.13;;;5.00;;
26656;SDS011;14279;50.010;8.260;2023-07-09T10:56:51;12.97;;;4.13;;
26656;SDS011;14279;50.010;8.260;2023-07-09T10:59:25;11.47;;;4.37;;
26656;SDS011;14279;50.010;8.260;2023-07-09T11:02:34;10.17;;;4.40;;
26656;SDS011;14279;50.010;8.260;2023-07-09T11:07:38;8.20;;;4.10;;
26656;SDS011;14279;50.010;8.260;2023-07-09T11:10:20;5.73;;;4.10;;
26656;SDS011;14279;50.010;8.260;2023-07-09T11:13:03;7.50;;;3.93;;
26656;SDS011;14279;50.010;8.260;2023-07-09T11:15:55;6.23;;;3.77;;
26656;SDS011;14279;50.010;8.260;2023-07-09T11:18:34;9.13;;;3.83;;
26656;SDS011;14279;50.010;8.260;2023-07-09T11:21:22;6.60;;;3.40;;
26656;SDS011;14279;50.010;8.260;2023-07-09T11:23:58;9.23;;;4.20;;
26656;SDS011;14279;50.010;8.260;2023-07-09T11:26:26;9.53;;;4.00;;
26656;SDS011;14279;50.010;8.260;2023-07-09T11:31:40;11.70;;;4.00;;
26656;SDS011;14279;50.010;8.260;2023-07-09T11:36:31;8.33;;;3.77;;
26656;SDS011;14279;50.010;8.260;2023-07-09T11:38:57;6.50;;;3.73;;
26656;SDS011;14279;50.010;8.260;2023-07-09T11:41:41;5.43;;;3.80;;
26656;SDS011;14279;50.010;8.260;2023-07-09T11:49:56;15.57;;;4.50;;
26656;SDS011;14279;50.010;8.260;2023-07-09T11:52:34;5.43;;;3.73;;
26656;SDS011;14279;50.010;8.260;2023-07-09T11:58:10;6.13;;;3.70;;
26656;SDS011;14279;50.010;8.260;2023-07-09T12:03:20;9.20;;;4.13;;
26656;SDS011;14279;50.010;8.260;2023-07-09T12:05:56;8.10;;;3.33;;
26656;SDS011;14279;50.010;8.260;2023-07-09T12:08:32;6.10;;;3.87;;
26656;SDS011;14279;50.010;8.260;2023-07-09T12:11:00;15.00;;;5.50;;
26656;SDS011;14279;50.010;8.260;2023-07-09T12:13:26;4.30;;;3.00;;
26656;SDS011;14279;50.010;8.260;2023-07-09T12:15:51;9.07;;;3.73;;
26656;SDS011;14279;50.010;8.260;2023-07-09T12:18:35;7.17;;;3.57;;
26656;SDS011;14279;50.010;8.260;2023-07-09T12:21:22;7.67;;;3.30;;
26656;SDS011;14279;50.010;8.260;2023-07-09T12:31:17;8.53;;;3.63;;
26656;SDS011;14279;50.010;8.260;2023-07-09T12:37:07;5.10;;;3.10;;
26656;SDS011;14279;50.010;8.260;2023-07-09T12:47:08;3.00;;;2.40;;
26656;SDS011;14279;50.010;8.260;2023-07-09T13:03:21;5.50;;;2.90;;
26656;SDS011;14279;50.010;8.260;2023-07-09T13:05:56;11.82;;;3.15;;
26656;SDS011;14279;50.010;8.260;2023-07-09T13:08:31;4.90;;;3.22;;
26656;SDS011;14279;50.010;8.260;2023-07-09T13:11:47;7.68;;;3.53;;
26656;SDS011;14279;50.010;8.260;2023-07-09T13:17:12;4.95;;;3.45;;
26656;SDS011;14279;50.010;8.260;2023-07-09T13:19:41;4.20;;;3.10;;
26656;SDS011;14279;50.010;8.260;2023-07-09T13:22:12;5.63;;;3.57;;
26656;SDS011;14279;50.010;8.260;2023-07-09T13:24:39;7.35;;;3.20;;
26656;SDS011;14279;50.010;8.260;2023-07-09T13:27:05;10.30;;;3.90;;
26656;SDS011;14279;50.010;8.260;2023-07-09T13:29:33;7.25;;;3.40;;
26656;SDS011;14279;50.010;8.260;2023-07-09T13:31:59;10.13;;;4.03;;
26656;SDS011;14279;50.010;8.260;2023-07-09T13:34:33;12.85;;;3.60;;
26656;SDS011;14279;50.010;8.260;2023-07-09T13:37:00;8.13;;;3.67;;
26656;SDS011;14279;50.010;8.260;2023-07-09T13:39:25;12.00;;;3.40;;
26656;SDS011;14279;50.010;8.260;2023-07-09T13:41:57;4.70;;;3.27;;
26656;SDS011;14279;50.010;8.260;2023-07-09T13:44:26;6.43;;;3.67;;
26656;SDS011;14279;50.010;8.260;2023-07-09T13:46:54;9.37;;;3.33;;
26656;SDS011;14279;50.010;8.260;2023-07-09T13:49:22;5.60;;;3.10;;
26656;SDS011;14279;50.010;8.260;2023-07-09T13:51:50;5.10;;;3.90;;
26656;SDS011;14279;50.010;8.260;2023-07-09T13:54:25;10.45;;;3.70;;
26656;SDS011;14279;50.010;8.260;2023-07-09T13:56:56;10.13;;;3.35;;
26656;SDS011;14279;50.010;8.260;2023-07-09T13:59:29;9.73;;;3.60;;
26656;SDS011;14279;50.010;8.260;2023-07-09T14:01:58;8.80;;;3.58;;
26656;SDS011;14279;50.010;8.260;2023-07-09T14:04:36;10.45;;;3.53;;
26656;SDS011;14279;50.010;8.260;2023-07-09T14:07:02;10.30;;;3.75;;
26656;SDS011;14279;50.010;8.260;2023-07-09T14:09:27;10.70;;;3.17;;
26656;SDS011;14279;50.010;8.260;2023-07-09T14:11:55;7.88;;;3.63;;
26656;SDS011;14279;50.010;8.260;2023-07-09T14:14:26;4.68;;;3.40;;
26656;SDS011;14279;50.010;8.260;2023-07-09T14:17:07;12.63;;;3.60;;
26656;SDS011;14279;50.010;8.260;2023-07-09T14:19:53;5.68;;;3.65;;
26656;SDS011;14279;50.010;8.260;2023-07-09T14:22:34;9.85;;;3.78;;
26656;SDS011;14279;50.010;8.260;2023-07-09T14:25:01;6.80;;;3.67;;
26656;SDS011;14279;50.010;8.260;2023-07-09T14:27:28;9.50;;;3.05;;
26656;SDS011;14279;50.010;8.260;2023-07-09T14:30:01;7.50;;;3.03;;
26656;SDS011;14279;50.010;8.260;2023-07-09T14:38:43;7.28;;;3.20;;
26656;SDS011;14279;50.010;8.260;2023-07-09T14:41:19;7.57;;;3.30;;
26656;SDS011;14279;50.010;8.260;2023-07-09T14:43:51;7.03;;;3.38;;
26656;SDS011;14279;50.010;8.260;2023-07-09T14:46:22;10.90;;;3.70;;
26656;SDS011;14279;50.010;8.260;2023-07-09T14:48:47;11.77;;;4.03;;
26656;SDS011;14279;50.010;8.260;2023-07-09T14:51:14;7.10;;;3.40;;
26656;SDS011;14279;50.010;8.260;2023-07-09T14:53:41;8.63;;;3.72;;
26656;SDS011;14279;50.010;8.260;2023-07-09T14:59:31;9.00;;;3.50;;
26656;SDS011;14279;50.010;8.260;2023-07-09T15:04:53;5.95;;;3.00;;
26656;SDS011;14279;50.010;8.260;2023-07-09T15:07:19;6.75;;;3.60;;
26656;SDS011;14279;50.010;8.260;2023-07-09T15:09:44;12.40;;;3.75;;
26656;SDS011;14279;50.010;8.260;2023-07-09T15:12:19;7.30;;;3.28;;
26656;SDS011;14279;50.010;8.260;2023-07-09T15:14:53;13.60;;;4.15;;
26656;SDS011;14279;50.010;8.260;2023-07-09T15:17:42;4.47;;;3.40;;
26656;SDS011;14279;50.010;8.260;2023-07-09T15:20:23;10.43;;;4.38;;
26656;SDS011;14279;50.010;8.260;2023-07-09T15:22:54;5.93;;;3.60;;
26656;SDS011;14279;50.010;8.260;2023-07-09T15:25:25;8.30;;;3.67;;
26656;SDS011;14279;50.010;8.260;2023-07-09T15:28:09;5.00;;;3.20;;
26656;SDS011;14279;50.010;8.260;2023-07-09T15:30:44;7.00;;;3.83;;
26656;SDS011;14279;50.010;8.260;2023-07-09T15:33:12;15.57;;;4.10;;
26656;SDS011;14279;50.010;8.260;2023-07-09T15:35:40;6.53;;;3.88;;
26656;SDS011;14279;50.010;8.260;2023-07-09T15:38:12;5.03;;;3.37;;
26656;SDS011;14279;50.010;8.260;2023-07-09T15:40:46;11.93;;;2.80;;
26656;SDS011;14279;50.010;8.260;2023-07-09T15:43:13;8.57;;;3.63;;
26656;SDS011;14279;50.010;8.260;2023-07-09T15:45:40;11.32;;;3.47;;
26656;SDS011;14279;50.010;8.260;2023-07-09T15:48:08;8.80;;;3.20;;
26656;SDS011;14279;50.010;8.260;2023-07-09T15:50:45;5.60;;;3.63;;
26656;SDS011;14279;50.010;8.260;2023-07-09T15:53:10;9.60;;;3.27;;
26656;SDS011;14279;50.010;8.260;2023-07-09T15:55:36;8.03;;;3.77;;
26656;SDS011;14279;50.010;8.260;2023-07-09T15:58:02;8.30;;;3.80;;
26656;SDS011;14279;50.010;8.260;2023-07-09T16:00:27;7.63;;;3.70;;
26656;SDS011;14279;50.010;8.260;2023-07-09T16:03:00;9.13;;;3.50;;
26656;SDS011;14279;50.010;8.260;2023-07-09T16:16:18;10.60;;;4.30;;
26656;SDS011;14279;50.010;8.260;2023-07-09T16:18:50;9.30;;;3.80;;
26656;SDS011;14279;50.010;8.260;2023-07-09T16:21:30;12.33;;;3.87;;
26656;SDS011;14279;50.010;8.260;2023-07-09T16:23:57;8.27;;;3.70;;
26656;SDS011;14279;50.010;8.260;2023-07-09T16:29:59;12.53;;;3.70;;
26656;SDS011;14279;50.010;8.260;2023-07-09T16:32:49;8.33;;;4.27;;
26656;SDS011;14279;50.010;8.260;2023-07-09T16:35:35;11.50;;;3.67;;
26656;SDS011;14279;50.010;8.260;2023-07-09T16:44:46;12.53;;;3.40;;
26656;SDS011;14279;50.010;8.260;2023-07-09T16:47:16;10.23;;;4.40;;
26656;SDS011;14279;50.010;8.260;2023-07-09T16:49:43;7.40;;;4.30;;
26656;SDS011;14279;50.010;8.260;2023-07-09T16:52:18;8.03;;;3.70;;
26656;SDS011;14279;50.010;8.260;2023-07-09T16:54:47;7.83;;;3.90;;
26656;SDS011;14279;50.010;8.260;2023-07-09T16:57:16;11.47;;;4.00;;
26656;SDS011;14279;50.010;8.260;2023-07-09T16:59:50;12.43;;;4.10;;
26656;SDS011;14279;50.010;8.260;2023-07-09T17:02:30;19.53;;;4.10;;
26656;SDS011;14279;50.010;8.260;2023-07-09T17:05:01;9.13;;;4.03;;
26656;SDS011;14279;50.010;8.260;2023-07-09T17:10:41;10.40;;;3.80;;
26656;SDS011;14279;50.010;8.260;2023-07-09T17:13:21;7.43;;;4.17;;
26656;SDS011;14279;50.010;8.260;2023-07-09T17:15:49;9.00;;;3.73;;
26656;SDS011;14279;50.010;8.260;2023-07-09T17:18:19;11.53;;;4.27;;
26656;SDS011;14279;50.010;8.260;2023-07-09T17:20:55;8.73;;;3.70;;
26656;SDS011;14279;50.010;8.260;2023-07-09T17:23:28;15.43;;;3.73;;
26656;SDS011;14279;50.010;8.260;2023-07-09T17:25:55;14.83;;;3.67;;
26656;SDS011;14279;50.010;8.260;2023-07-09T17:28:22;11.23;;;4.47;;